ZA-0053 weather

Ganspan Airport
Ganspan, Northern Cape, South Africa

Public forecast

Using degrees Celsius for public forecast. Weather courtesy of forecast.io.

METAR (pilot weather report)

Closest report is Kimberley Airport, 51.8 nm (95.9 km) S. Retrieved 2019/08/26 06:29 UTC (19 minutes ago):

FAKM 260629Z 01004KT CAVOK 18/M06 Q1024

TAF (pilot weather forecast)

Forecast is more than 12 hours old.

Closest forecast is Kimberley Airport, 51.8 nm (95.9 km) S. Retrieved 2018/10/29 07:06 UTC (10 months ago):

TAF TAF FAKM 290600Z 2907/2919 33015KT CAVOK TX38/2913Z TN28/2918Z